Terminal Aerodrome Forecast
Issued by NWS Charleston, WV

Home | Current Version | Previous Version | Text Only | Print | Product List | Glossary On
Versions: 1 2 3 4 5 6 7 8 9 10 11 12 13 14 15 16 17 18 19 20 21 22 23 24
265
FTUS41 KRLX 200903 AAA
TAFCRW
TAF AMD
KCRW 200903Z 2009/2106 21004KT 6SM BR FEW035
     FM201300 24005KT P6SM SCT060
     FM201900 27006KT P6SM BKN070 PROB30 2020/2023 5SM TSRA BKN050CB
     FM202300 00000KT P6SM BKN080=

USA.gov is the U.S. government's official web portal to all federal, state and local government web resources and services.